Time;durP1;ratioP1;P1;durP2;ratioP2;P2;SDS_P1;SDS_P2;PMS_P1;PMS_P2;Temp;Humidity;BMP_temperature;BMP_pressure;BME280_temperature;BME280_humidity;BME280_pressure;Samples;Min_cycle;Max_cycle;Signal;HPM_P1;HPM_P2
2022/10/24 00:02:19;;;;;;;0.30;0.30;;;;;;;;;;7370245;19;20220;-71
2022/10/24 00:04:44;;;;;;;0.22;0.22;;;;;;;;;;7368148;19;20152;-73
2022/10/24 00:07:10;;;;;;;0.20;0.20;;;;;;;;;;7365734;19;20183;-73
2022/10/24 00:09:36;;;;;;;0.30;0.30;;;;;;;;;;7369562;19;20143;-71
2022/10/24 00:12:02;;;;;;;0.30;0.30;;;;;;;;;;7369440;19;20256;-72
2022/10/24 00:14:28;;;;;;;0.30;0.30;;;;;;;;;;7370046;19;20121;-72
2022/10/24 00:16:54;;;;;;;0.30;0.30;;;;;;;;;;7373779;19;20128;-71
2022/10/24 00:19:19;;;;;;;0.30;0.30;;;;;;;;;;7359981;19;20147;-73
2022/10/24 00:21:45;;;;;;;0.25;0.25;;;;;;;;;;7362200;19;20204;-72
2022/10/24 00:24:10;;;;;;;0.30;0.30;;;;;;;;;;7370866;19;20619;-72
2022/10/24 00:26:36;;;;;;;0.30;0.30;;;;;;;;;;7371130;19;20153;-74
2022/10/24 00:29:01;;;;;;;0.30;0.30;;;;;;;;;;7372520;19;20157;-74
2022/10/24 00:31:27;;;;;;;0.30;0.30;;;;;;;;;;7372912;19;20124;-72
2022/10/24 00:33:53;;;;;;;0.30;0.30;;;;;;;;;;7366634;19;20121;-73
2022/10/24 00:36:19;;;;;;;0.30;0.30;;;;;;;;;;7374005;19;20149;-73
2022/10/24 00:38:45;;;;;;;0.30;0.30;;;;;;;;;;7375494;19;20563;-74
2022/10/24 00:41:19;;;;;;;0.30;0.30;;;;;;;;;;7365172;19;20156;-71
2022/10/24 00:43:45;;;;;;;0.30;0.30;;;;;;;;;;7366997;19;20148;-74
2022/10/24 00:46:10;;;;;;;0.30;0.30;;;;;;;;;;7374625;19;20183;-73
2022/10/24 00:48:51;;;;;;;0.30;0.30;;;;;;;;;;7380971;19;20125;-71
2022/10/24 00:51:25;;;;;;;0.47;0.47;;;;;;;;;;7372797;19;20156;-72
2022/10/24 00:54:00;;;;;;;0.30;0.30;;;;;;;;;;7369942;19;20131;-73
2022/10/24 00:56:30;;;;;;;0.30;0.30;;;;;;;;;;7375685;19;20250;-73
2022/10/24 00:58:56;;;;;;;0.30;0.30;;;;;;;;;;7368301;19;20141;-72
2022/10/24 01:01:23;;;;;;;0.30;0.30;;;;;;;;;;7348672;19;20133;-73
2022/10/24 01:03:49;;;;;;;0.30;0.30;;;;;;;;;;7367359;19;20506;-73
2022/10/24 01:06:39;;;;;;;0.30;0.30;;;;;;;;;;7362021;19;20161;-73
2022/10/24 01:09:26;;;;;;;0.68;0.65;;;;;;;;;;7367300;19;20121;-73
2022/10/24 01:12:05;;;;;;;0.30;0.30;;;;;;;;;;7361538;19;20125;-72
2022/10/24 01:14:50;;;;;;;0.30;0.30;;;;;;;;;;7371104;19;20128;-73
2022/10/24 01:17:25;;;;;;;0.30;0.30;;;;;;;;;;7369685;19;20137;-73
2022/10/24 01:20:09;;;;;;;0.30;0.30;;;;;;;;;;7372014;19;20140;-70
2022/10/24 01:23:06;;;;;;;0.30;0.30;;;;;;;;;;7365733;19;20132;-73
2022/10/24 01:26:07;;;;;;;0.30;0.30;;;;;;;;;;7372594;19;20164;-74
2022/10/24 01:28:42;;;;;;;0.30;0.30;;;;;;;;;;7365992;19;20176;-73
2022/10/24 01:31:11;;;;;;;0.30;0.30;;;;;;;;;;7370809;19;20743;-71
2022/10/24 01:33:44;;;;;;;2.08;1.30;;;;;;;;;;7370425;19;21314;-71
2022/10/24 01:36:12;;;;;;;0.30;0.30;;;;;;;;;;7358045;19;20176;-71
2022/10/24 01:38:44;;;;;;;0.30;0.30;;;;;;;;;;7374479;19;20149;-73
2022/10/24 01:41:18;;;;;;;1.00;0.65;;;;;;;;;;7361180;19;20201;-72
2022/10/24 01:43:49;;;;;;;0.30;0.30;;;;;;;;;;7367376;19;20125;-73
2022/10/24 01:46:18;;;;;;;0.30;0.30;;;;;;;;;;7363008;19;20168;-73
2022/10/24 01:48:46;;;;;;;0.35;0.35;;;;;;;;;;7373834;19;20604;-71
2022/10/24 01:51:13;;;;;;;0.30;0.30;;;;;;;;;;7367633;19;20501;-73
2022/10/24 01:53:41;;;;;;;0.30;0.30;;;;;;;;;;7367636;19;20198;-71
2022/10/24 01:56:07;;;;;;;0.30;0.30;;;;;;;;;;7356052;19;20713;-74
2022/10/24 01:58:32;;;;;;;0.20;0.20;;;;;;;;;;7365710;19;20129;-71
2022/10/24 02:01:01;;;;;;;5.93;0.63;;;;;;;;;;7350567;19;20437;-71
2022/10/24 02:03:38;;;;;;;0.30;0.30;;;;;;;;;;7355257;19;20133;-72
2022/10/24 02:06:09;;;;;;;0.30;0.30;;;;;;;;;;7363781;19;20718;-71
2022/10/24 02:08:38;;;;;;;0.30;0.30;;;;;;;;;;7367077;19;20129;-73
2022/10/24 02:11:06;;;;;;;0.30;0.30;;;;;;;;;;7359779;19;20164;-73
2022/10/24 02:13:38;;;;;;;0.20;0.20;;;;;;;;;;7373572;19;20244;-72
2022/10/24 02:16:04;;;;;;;0.30;0.30;;;;;;;;;;7365410;19;20176;-73
2022/10/24 02:18:29;;;;;;;0.30;0.30;;;;;;;;;;7378256;19;20137;-74
2022/10/24 02:21:16;;;;;;;0.30;0.30;;;;;;;;;;7363338;19;20131;-73
2022/10/24 02:24:00;;;;;;;0.30;0.30;;;;;;;;;;7370802;19;20140;-74
2022/10/24 02:26:30;;;;;;;1.10;1.10;;;;;;;;;;7370447;19;20518;-73
2022/10/24 02:28:59;;;;;;;0.30;0.30;;;;;;;;;;7367301;19;20145;-73
2022/10/24 02:31:26;;;;;;;0.40;0.40;;;;;;;;;;7362663;19;20137;-73
2022/10/24 02:33:53;;;;;;;0.30;0.30;;;;;;;;;;7360472;19;20133;-73
2022/10/24 02:36:23;;;;;;;0.30;0.30;;;;;;;;;;7363956;19;20153;-71
2022/10/24 02:38:49;;;;;;;0.30;0.30;;;;;;;;;;7372567;19;20129;-71
2022/10/24 02:41:19;;;;;;;0.30;0.30;;;;;;;;;;7368421;19;20197;-71
2022/10/24 02:43:45;;;;;;;0.30;0.30;;;;;;;;;;7371375;19;20137;-71
2022/10/24 02:46:11;;;;;;;0.30;0.30;;;;;;;;;;7363760;19;20862;-73
2022/10/24 02:48:41;;;;;;;0.30;0.30;;;;;;;;;;7366871;19;20125;-72
2022/10/24 02:51:07;;;;;;;0.30;0.30;;;;;;;;;;7369005;19;20171;-71
2022/10/24 02:53:34;;;;;;;0.30;0.30;;;;;;;;;;7368124;19;20647;-73
2022/10/24 02:56:00;;;;;;;0.30;0.30;;;;;;;;;;7364730;19;20853;-73
2022/10/24 02:58:25;;;;;;;0.30;0.30;;;;;;;;;;7371890;19;20597;-73
2022/10/24 03:00:50;;;;;;;1.10;1.10;;;;;;;;;;7367257;19;20160;-70
2022/10/24 03:03:16;;;;;;;0.38;0.38;;;;;;;;;;7361591;19;20633;-73
2022/10/24 03:05:41;;;;;;;0.30;0.30;;;;;;;;;;7367803;19;20627;-70
2022/10/24 03:08:06;;;;;;;0.50;0.50;;;;;;;;;;7360121;19;20743;-71
2022/10/24 03:10:32;;;;;;;0.30;0.30;;;;;;;;;;7366285;19;20627;-73
2022/10/24 03:12:57;;;;;;;0.32;0.32;;;;;;;;;;7370920;19;20148;-74
2022/10/24 03:15:22;;;;;;;0.20;0.20;;;;;;;;;;7375860;19;20172;-73
2022/10/24 03:17:48;;;;;;;0.30;0.30;;;;;;;;;;7376051;19;20137;-71
2022/10/24 03:20:14;;;;;;;0.30;0.30;;;;;;;;;;7369134;19;20532;-72
2022/10/24 03:22:39;;;;;;;0.30;0.30;;;;;;;;;;7370656;19;20125;-73
2022/10/24 03:25:05;;;;;;;0.30;0.30;;;;;;;;;;7362549;19;20152;-73
2022/10/24 03:27:32;;;;;;;0.45;0.45;;;;;;;;;;7368132;19;20124;-73
2022/10/24 03:29:58;;;;;;;0.20;0.20;;;;;;;;;;7364969;19;20129;-74
2022/10/24 03:32:23;;;;;;;0.20;0.20;;;;;;;;;;7380502;19;20117;-74
2022/10/24 03:34:49;;;;;;;0.22;0.22;;;;;;;;;;7373330;19;20508;-73
2022/10/24 03:37:14;;;;;;;0.32;0.32;;;;;;;;;;7385081;19;20148;-73
2022/10/24 03:39:39;;;;;;;0.30;0.30;;;;;;;;;;7385092;19;20113;-72
2022/10/24 03:42:05;;;;;;;0.30;0.30;;;;;;;;;;7388181;19;20133;-73
2022/10/24 03:44:30;;;;;;;0.30;0.30;;;;;;;;;;7378174;19;20161;-73
2022/10/24 03:46:55;;;;;;;0.30;0.30;;;;;;;;;;7382021;19;20128;-71
2022/10/24 03:49:21;;;;;;;0.30;0.30;;;;;;;;;;7381546;19;20149;-73
2022/10/24 03:51:46;;;;;;;0.35;0.35;;;;;;;;;;7386019;19;20586;-72
2022/10/24 03:54:14;;;;;;;0.20;0.20;;;;;;;;;;7382570;19;20129;-73
2022/10/24 03:56:40;;;;;;;0.30;0.30;;;;;;;;;;7376303;19;20128;-73
2022/10/24 03:59:05;;;;;;;0.30;0.30;;;;;;;;;;7376347;19;20565;-73
2022/10/24 04:01:30;;;;;;;0.30;0.30;;;;;;;;;;7386840;19;20627;-72
2022/10/24 04:03:56;;;;;;;0.20;0.20;;;;;;;;;;7387696;19;20221;-72
2022/10/24 04:06:21;;;;;;;0.30;0.30;;;;;;;;;;7379044;19;20493;-73
2022/10/24 04:08:46;;;;;;;3.85;2.17;;;;;;;;;;7383003;19;20176;-73
2022/10/24 04:11:12;;;;;;;0.30;0.30;;;;;;;;;;7385577;19;20129;-73
2022/10/24 04:13:37;;;;;;;0.40;0.40;;;;;;;;;;7383045;19;20523;-71
2022/10/24 04:16:02;;;;;;;0.30;0.30;;;;;;;;;;7375232;19;20172;-73
2022/10/24 04:18:28;;;;;;;0.30;0.30;;;;;;;;;;7383955;19;20153;-73
2022/10/24 04:20:53;;;;;;;0.30;0.30;;;;;;;;;;7377105;19;20216;-72
2022/10/24 04:23:18;;;;;;;0.40;0.40;;;;;;;;;;7378304;19;20136;-72
2022/10/24 04:25:44;;;;;;;1.08;1.08;;;;;;;;;;7382728;19;20169;-73
2022/10/24 04:28:09;;;;;;;0.30;0.30;;;;;;;;;;7383560;19;20132;-73
2022/10/24 04:30:35;;;;;;;0.30;0.30;;;;;;;;;;7376692;19;20137;-73
2022/10/24 04:33:00;;;;;;;0.20;0.20;;;;;;;;;;7385570;19;20159;-73
2022/10/24 04:35:25;;;;;;;0.30;0.30;;;;;;;;;;7384280;19;20887;-72
2022/10/24 04:37:51;;;;;;;0.30;0.30;;;;;;;;;;7386679;19;20121;-72
2022/10/24 04:40:16;;;;;;;0.25;0.25;;;;;;;;;;7373707;19;20600;-73
2022/10/24 04:42:42;;;;;;;0.35;0.35;;;;;;;;;;7387128;19;20153;-73
2022/10/24 04:45:08;;;;;;;0.20;0.20;;;;;;;;;;7376179;19;20149;-72
2022/10/24 04:47:33;;;;;;;0.30;0.30;;;;;;;;;;7380903;19;20149;-72
2022/10/24 04:49:59;;;;;;;0.30;0.30;;;;;;;;;;7382607;19;20218;-71
2022/10/24 04:52:24;;;;;;;0.30;0.30;;;;;;;;;;7384233;19;20163;-73
2022/10/24 04:54:49;;;;;;;0.20;0.20;;;;;;;;;;7384245;19;20616;-72
2022/10/24 04:57:15;;;;;;;0.30;0.30;;;;;;;;;;7373866;19;20140;-73
2022/10/24 04:59:40;;;;;;;0.22;0.22;;;;;;;;;;7371556;19;20510;-71
2022/10/24 05:02:05;;;;;;;0.20;0.20;;;;;;;;;;7380644;19;20138;-73
2022/10/24 05:04:31;;;;;;;0.30;0.30;;;;;;;;;;7378585;19;20165;-73
2022/10/24 05:06:56;;;;;;;0.30;0.30;;;;;;;;;;7380667;19;20493;-73
2022/10/24 05:09:21;;;;;;;0.20;0.20;;;;;;;;;;7381376;19;20152;-73
2022/10/24 05:11:47;;;;;;;0.30;0.30;;;;;;;;;;7372641;19;20164;-73
2022/10/24 05:14:13;;;;;;;0.20;0.20;;;;;;;;;;7379000;19;20153;-72
2022/10/24 05:16:38;;;;;;;0.20;0.20;;;;;;;;;;7377479;19;20580;-72
2022/10/24 05:19:04;;;;;;;0.30;0.30;;;;;;;;;;7374009;19;20131;-72
2022/10/24 05:21:29;;;;;;;0.30;0.30;;;;;;;;;;7370422;19;20469;-73
2022/10/24 05:23:54;;;;;;;0.30;0.30;;;;;;;;;;7384151;19;20493;-73
2022/10/24 05:26:20;;;;;;;0.30;0.30;;;;;;;;;;7374603;19;20149;-72
2022/10/24 05:28:45;;;;;;;0.30;0.30;;;;;;;;;;7383042;19;20155;-73
2022/10/24 05:31:10;;;;;;;0.30;0.30;;;;;;;;;;7384449;19;20144;-73
2022/10/24 05:33:35;;;;;;;0.30;0.30;;;;;;;;;;7384179;19;20141;-73
2022/10/24 05:36:01;;;;;;;0.30;0.30;;;;;;;;;;7378592;19;20166;-73
2022/10/24 05:38:26;;;;;;;0.30;0.30;;;;;;;;;;7385461;19;20148;-73
2022/10/24 05:40:52;;;;;;;0.30;0.30;;;;;;;;;;7370075;19;20615;-73
2022/10/24 05:43:18;;;;;;;0.30;0.30;;;;;;;;;;7375068;19;20130;-73
2022/10/24 05:45:43;;;;;;;0.30;0.30;;;;;;;;;;7374745;19;20141;-72
2022/10/24 05:48:09;;;;;;;0.30;0.30;;;;;;;;;;7381729;19;20209;-72
2022/10/24 05:50:34;;;;;;;0.30;0.30;;;;;;;;;;7366967;19;20113;-72
2022/10/24 05:53:00;;;;;;;0.30;0.30;;;;;;;;;;7367677;19;20129;-72
2022/10/24 05:55:26;;;;;;;0.30;0.30;;;;;;;;;;7366413;19;20149;-70
2022/10/24 05:57:51;;;;;;;0.20;0.20;;;;;;;;;;7372330;19;20505;-72
2022/10/24 06:00:17;;;;;;;0.50;0.50;;;;;;;;;;7381559;19;20137;-70
2022/10/24 06:02:42;;;;;;;0.30;0.30;;;;;;;;;;7384472;19;20591;-72
2022/10/24 06:05:08;;;;;;;0.30;0.30;;;;;;;;;;7387153;19;20169;-73
2022/10/24 06:07:34;;;;;;;0.30;0.30;;;;;;;;;;7386876;19;20553;-72
2022/10/24 06:09:59;;;;;;;0.30;0.30;;;;;;;;;;7387447;19;20196;-73
2022/10/24 06:12:25;;;;;;;0.30;0.30;;;;;;;;;;7385363;19;20137;-71
2022/10/24 06:14:54;;;;;;;0.40;0.40;;;;;;;;;;7384549;19;20156;-73
2022/10/24 06:17:20;;;;;;;0.30;0.30;;;;;;;;;;7387728;19;20488;-73
2022/10/24 06:19:45;;;;;;;0.30;0.30;;;;;;;;;;7384143;19;20135;-72
2022/10/24 06:22:10;;;;;;;0.30;0.30;;;;;;;;;;7380992;19;20121;-72
2022/10/24 06:24:37;;;;;;;0.30;0.30;;;;;;;;;;7389231;19;20191;-72
2022/10/24 06:27:03;;;;;;;0.30;0.30;;;;;;;;;;7394976;19;20153;-73
2022/10/24 06:29:29;;;;;;;0.30;0.30;;;;;;;;;;7376089;19;20542;-73
2022/10/24 06:31:54;;;;;;;0.30;0.30;;;;;;;;;;7384333;19;20227;-73
2022/10/24 06:34:19;;;;;;;0.30;0.30;;;;;;;;;;7388150;19;20113;-70
2022/10/24 06:36:45;;;;;;;1.08;1.00;;;;;;;;;;7391104;19;20611;-73
2022/10/24 06:39:10;;;;;;;0.30;0.30;;;;;;;;;;7387667;19;20162;-72
2022/10/24 06:41:35;;;;;;;0.30;0.30;;;;;;;;;;7380985;19;20141;-73
2022/10/24 06:44:02;;;;;;;0.20;0.20;;;;;;;;;;7401014;19;20372;-71
2022/10/24 06:46:27;;;;;;;0.30;0.30;;;;;;;;;;7404353;19;20151;-70
2022/10/24 06:48:54;;;;;;;0.30;0.30;;;;;;;;;;7390620;19;20149;-72
2022/10/24 06:51:20;;;;;;;0.30;0.30;;;;;;;;;;7391907;19;20125;-70
2022/10/24 06:53:46;;;;;;;0.20;0.20;;;;;;;;;;7392359;19;20623;-73
2022/10/24 06:56:12;;;;;;;0.20;0.20;;;;;;;;;;7395457;19;20240;-73
2022/10/24 06:58:38;;;;;;;0.30;0.30;;;;;;;;;;7387611;19;20142;-72
2022/10/24 07:01:11;;;;;;;0.30;0.30;;;;;;;;;;7386610;19;20129;-73
2022/10/24 07:03:37;;;;;;;0.30;0.30;;;;;;;;;;7380156;19;20618;-73
2022/10/24 07:06:17;;;;;;;0.30;0.30;;;;;;;;;;7384834;19;20172;-72
2022/10/24 07:08:43;;;;;;;0.30;0.30;;;;;;;;;;7386312;19;20192;-73
2022/10/24 07:11:09;;;;;;;0.30;0.30;;;;;;;;;;7385025;19;20170;-72
2022/10/24 07:13:34;;;;;;;0.30;0.30;;;;;;;;;;7382640;19;20556;-73
2022/10/24 07:15:59;;;;;;;0.30;0.30;;;;;;;;;;7386024;19;20631;-73
2022/10/24 07:18:25;;;;;;;0.30;0.30;;;;;;;;;;7388820;19;20184;-73
2022/10/24 07:20:50;;;;;;;0.30;0.30;;;;;;;;;;7377408;19;20133;-72
2022/10/24 07:23:15;;;;;;;0.60;0.60;;;;;;;;;;7386212;19;20145;-74
2022/10/24 07:25:41;;;;;;;0.30;0.30;;;;;;;;;;7382747;19;20878;-73
2022/10/24 07:28:07;;;;;;;0.30;0.30;;;;;;;;;;7384959;19;20149;-73
2022/10/24 07:30:33;;;;;;;0.20;0.20;;;;;;;;;;7381566;19;20145;-73
2022/10/24 07:32:59;;;;;;;0.30;0.30;;;;;;;;;;7375788;19;20137;-73
2022/10/24 07:35:24;;;;;;;0.30;0.30;;;;;;;;;;7382651;19;20172;-73
2022/10/24 07:37:50;;;;;;;0.22;0.22;;;;;;;;;;7383027;19;20903;-74
2022/10/24 07:40:16;;;;;;;0.30;0.30;;;;;;;;;;7378992;19;20120;-73
2022/10/24 07:42:41;;;;;;;0.30;0.30;;;;;;;;;;7384787;19;20137;-73
2022/10/24 07:45:07;;;;;;;0.30;0.30;;;;;;;;;;7385066;19;20145;-74
2022/10/24 07:47:33;;;;;;;0.30;0.30;;;;;;;;;;7387744;19;20183;-73
2022/10/24 07:49:58;;;;;;;0.30;0.30;;;;;;;;;;7385249;19;20113;-73
2022/10/24 07:52:26;;;;;;;0.30;0.30;;;;;;;;;;7381343;19;20559;-73
2022/10/24 07:54:53;;;;;;;0.30;0.30;;;;;;;;;;7383633;19;20149;-72
2022/10/24 07:57:18;;;;;;;0.30;0.30;;;;;;;;;;7384964;19;20129;-72
2022/10/24 07:59:44;;;;;;;0.30;0.30;;;;;;;;;;7385024;19;20156;-74
2022/10/24 08:02:11;;;;;;;0.30;0.30;;;;;;;;;;7387026;19;20151;-72
2022/10/24 08:04:36;;;;;;;0.30;0.30;;;;;;;;;;7382850;19;20235;-73
2022/10/24 08:07:01;;;;;;;0.30;0.30;;;;;;;;;;7384592;19;20641;-73
2022/10/24 08:09:27;;;;;;;0.30;0.30;;;;;;;;;;7386847;19;20121;-73
2022/10/24 08:11:52;;;;;;;0.30;0.30;;;;;;;;;;7385180;19;20147;-72
2022/10/24 08:14:17;;;;;;;0.30;0.30;;;;;;;;;;7374043;19;20157;-73
2022/10/24 08:16:43;;;;;;;0.30;0.30;;;;;;;;;;7384469;19;20125;-73
2022/10/24 08:19:10;;;;;;;0.30;0.30;;;;;;;;;;7381498;19;20133;-72
2022/10/24 08:21:36;;;;;;;0.30;0.30;;;;;;;;;;7370967;19;20145;-73
2022/10/24 08:24:01;;;;;;;0.30;0.30;;;;;;;;;;7387913;19;20200;-73
2022/10/24 08:26:26;;;;;;;0.30;0.30;;;;;;;;;;7381748;19;20148;-73
2022/10/24 08:28:54;;;;;;;0.30;0.30;;;;;;;;;;7383118;19;20136;-73
2022/10/24 08:31:20;;;;;;;0.30;0.30;;;;;;;;;;7373356;19;20120;-73
2022/10/24 08:33:46;;;;;;;0.30;0.30;;;;;;;;;;7383483;19;20162;-73
2022/10/24 08:36:19;;;;;;;0.30;0.30;;;;;;;;;;7383249;19;20655;-73
2022/10/24 08:38:44;;;;;;;0.22;0.22;;;;;;;;;;7382565;19;20172;-73
2022/10/24 08:41:24;;;;;;;0.30;0.30;;;;;;;;;;7373548;19;20211;-73
2022/10/24 08:43:51;;;;;;;0.45;0.45;;;;;;;;;;7384858;19;20141;-74
2022/10/24 08:46:30;;;;;;;0.30;0.30;;;;;;;;;;7382985;19;20611;-73
2022/10/24 08:49:22;;;;;;;0.43;0.43;;;;;;;;;;7382454;19;20157;-73
2022/10/24 08:51:52;;;;;;;0.30;0.30;;;;;;;;;;7387139;19;20125;-72
2022/10/24 08:54:22;;;;;;;0.30;0.30;;;;;;;;;;7384011;19;20607;-73
2022/10/24 08:56:47;;;;;;;0.30;0.30;;;;;;;;;;7376848;19;20166;-73
2022/10/24 08:59:12;;;;;;;0.30;0.30;;;;;;;;;;7381630;19;20129;-73
2022/10/24 09:01:47;;;;;;;0.30;0.30;;;;;;;;;;7382821;19;20208;-73
2022/10/24 09:04:14;;;;;;;0.30;0.30;;;;;;;;;;7383410;19;20155;-74
2022/10/24 09:06:39;;;;;;;0.30;0.30;;;;;;;;;;7383358;19;20151;-72
2022/10/24 09:09:07;;;;;;;0.30;0.30;;;;;;;;;;7384025;19;20148;-73
2022/10/24 09:12:14;;;;;;;0.30;0.30;;;;;;;;;;7377044;19;20855;-72
2022/10/24 09:14:42;;;;;;;0.30;0.30;;;;;;;;;;7382151;19;20168;-73
2022/10/24 09:17:18;;;;;;;0.35;0.35;;;;;;;;;;7382282;19;20117;-70
2022/10/24 09:19:51;;;;;;;0.30;0.30;;;;;;;;;;7367661;19;20556;-73
2022/10/24 09:22:17;;;;;;;0.30;0.30;;;;;;;;;;7370519;19;20133;-74
2022/10/24 09:24:48;;;;;;;0.30;0.30;;;;;;;;;;7373658;19;20176;-74
2022/10/24 09:27:17;;;;;;;0.30;0.30;;;;;;;;;;7368847;19;20255;-74
2022/10/24 09:29:42;;;;;;;1.02;1.02;;;;;;;;;;7365332;19;20514;-73
2022/10/24 09:32:20;;;;;;;0.30;0.30;;;;;;;;;;7379845;19;20911;-73
2022/10/24 09:34:45;;;;;;;0.30;0.30;;;;;;;;;;7382010;19;20148;-72
2022/10/24 09:37:48;;;;;;;0.30;0.30;;;;;;;;;;7379292;19;20151;-72
2022/10/24 09:40:19;;;;;;;0.30;0.30;;;;;;;;;;7382719;19;20137;-70
2022/10/24 09:42:57;;;;;;;0.30;0.30;;;;;;;;;;7382474;19;20133;-73
2022/10/24 09:45:34;;;;;;;0.30;0.30;;;;;;;;;;7379610;19;20159;-73
2022/10/24 09:48:05;;;;;;;0.20;0.20;;;;;;;;;;7375186;19;20152;-71
2022/10/24 09:50:33;;;;;;;0.30;0.30;;;;;;;;;;7379021;19;20658;-72
2022/10/24 09:52:59;;;;;;;0.30;0.30;;;;;;;;;;7379319;19;20200;-71
2022/10/24 09:55:30;;;;;;;0.30;0.30;;;;;;;;;;7377163;19;20168;-73
2022/10/24 09:57:59;;;;;;;0.30;0.30;;;;;;;;;;7388276;19;20121;-74
2022/10/24 10:00:33;;;;;;;0.30;0.30;;;;;;;;;;7389839;19;20503;-73
2022/10/24 10:03:04;;;;;;;0.30;0.30;;;;;;;;;;7384454;19;20120;-72
2022/10/24 10:05:43;;;;;;;0.30;0.30;;;;;;;;;;7385540;19;20812;-73
2022/10/24 10:08:11;;;;;;;0.30;0.30;;;;;;;;;;7389105;19;20227;-73
2022/10/24 10:10:36;;;;;;;0.30;0.30;;;;;;;;;;7386035;19;20176;-70
2022/10/24 10:13:06;;;;;;;0.30;0.30;;;;;;;;;;7378470;19;20128;-73
2022/10/24 10:15:34;;;;;;;0.30;0.30;;;;;;;;;;7386245;19;20145;-72
2022/10/24 10:18:04;;;;;;;0.30;0.30;;;;;;;;;;7392100;19;20125;-73
2022/10/24 10:20:41;;;;;;;0.30;0.30;;;;;;;;;;7386425;19;20531;-72
2022/10/24 10:23:35;;;;;;;0.30;0.30;;;;;;;;;;7385363;19;20127;-72
2022/10/24 10:26:13;;;;;;;0.30;0.30;;;;;;;;;;7386370;19;20185;-72
2022/10/24 10:29:00;;;;;;;0.30;0.30;;;;;;;;;;7386857;19;20125;-71
2022/10/24 10:31:43;;;;;;;0.20;0.20;;;;;;;;;;7386158;19;20156;-71
2022/10/24 10:34:16;;;;;;;0.30;0.30;;;;;;;;;;7386222;19;20128;-71
2022/10/24 10:36:41;;;;;;;0.20;0.20;;;;;;;;;;7390988;19;20128;-70
2022/10/24 10:39:31;;;;;;;0.30;0.30;;;;;;;;;;7393052;19;20196;-70
2022/10/24 10:42:05;;;;;;;1.95;1.35;;;;;;;;;;7385742;19;20137;-71
2022/10/24 22:39:50;;;;;;;0.30;0.30;;;;;;;;;;7390447;19;20212;-71
2022/10/24 22:42:16;;;;;;;0.40;0.40;;;;;;;;;;7385332;19;20384;-72
2022/10/24 22:44:42;;;;;;;0.30;0.30;;;;;;;;;;7383579;19;20760;-71
2022/10/24 22:47:31;;;;;;;0.30;0.30;;;;;;;;;;7387665;19;20121;-72
2022/10/24 22:50:05;;;;;;;0.30;0.30;;;;;;;;;;7390561;19;20661;-72
2022/10/24 22:52:31;;;;;;;0.30;0.30;;;;;;;;;;7389095;19;20128;-72
2022/10/24 22:54:56;;;;;;;4.03;0.50;;;;;;;;;;7384850;19;20231;-72
2022/10/24 22:57:22;;;;;;;0.30;0.30;;;;;;;;;;7394294;19;20602;-71
2022/10/24 22:59:48;;;;;;;0.30;0.30;;;;;;;;;;7391519;19;20155;-71
2022/10/24 23:02:25;;;;;;;0.30;0.30;;;;;;;;;;7395051;19;20137;-71
2022/10/24 23:04:55;;;;;;;0.38;0.38;;;;;;;;;;7392780;19;20165;-71
2022/10/24 23:07:46;;;;;;;0.40;0.40;;;;;;;;;;7393019;19;20645;-71
2022/10/24 23:10:17;;;;;;;0.22;0.22;;;;;;;;;;7390641;19;20128;-72
2022/10/24 23:12:43;;;;;;;0.35;0.35;;;;;;;;;;7387127;19;20160;-72
2022/10/24 23:15:12;;;;;;;0.30;0.30;;;;;;;;;;7389127;19;20231;-72
2022/10/24 23:17:37;;;;;;;0.30;0.30;;;;;;;;;;7395980;19;20192;-72
2022/10/24 23:20:03;;;;;;;0.30;0.30;;;;;;;;;;7393548;19;20173;-72
2022/10/24 23:22:31;;;;;;;0.30;0.30;;;;;;;;;;7397101;19;20501;-72
2022/10/24 23:24:58;;;;;;;0.30;0.30;;;;;;;;;;7393149;19;20754;-71
2022/10/24 23:27:32;;;;;;;0.30;0.30;;;;;;;;;;7393093;19;20129;-72
2022/10/24 23:29:57;;;;;;;0.25;0.25;;;;;;;;;;7390604;19;20491;-71
2022/10/24 23:32:28;;;;;;;0.45;0.45;;;;;;;;;;7388357;19;20152;-72
2022/10/24 23:34:55;;;;;;;0.88;0.63;;;;;;;;;;7387713;19;20156;-72
2022/10/24 23:37:27;;;;;;;0.30;0.30;;;;;;;;;;7393290;19;20153;-72
2022/10/24 23:39:53;;;;;;;0.40;0.40;;;;;;;;;;7390902;19;20155;-72
2022/10/24 23:42:18;;;;;;;0.25;0.25;;;;;;;;;;7392852;19;20148;-72
2022/10/24 23:44:44;;;;;;;0.30;0.30;;;;;;;;;;7388599;19;20487;-71
2022/10/24 23:48:05;;;;;;;0.20;0.20;;;;;;;;;;7391376;19;20140;-71
2022/10/24 23:50:50;;;;;;;0.30;0.30;;;;;;;;;;7389627;19;20611;-71
2022/10/24 23:53:51;;;;;;;0.38;0.38;;;;;;;;;;7390497;19;20129;-71
2022/10/24 23:56:24;;;;;;;0.50;0.50;;;;;;;;;;7390185;19;20698;-71
2022/10/24 23:58:50;;;;;;;0.30;0.30;;;;;;;;;;7390571;19;20149;-72
